sensor_id;sensor_type;location;lat;lon;timestamp;P1;durP1;ratioP1;P2;durP2;ratioP2
79664;SDS011;69132;44.014;20.918;2023-06-10T00:01:51;8.10;;;6.70;;
79664;SDS011;69132;44.014;20.918;2023-06-10T00:04:27;7.25;;;6.55;;
79664;SDS011;69132;44.014;20.918;2023-06-10T00:06:53;7.28;;;6.38;;
79664;SDS011;69132;44.014;20.918;2023-06-10T00:09:20;6.75;;;6.07;;
79664;SDS011;69132;44.014;20.918;2023-06-10T00:11:46;8.95;;;6.60;;
79664;SDS011;69132;44.014;20.918;2023-06-10T00:14:13;8.52;;;6.95;;
79664;SDS011;69132;44.014;20.918;2023-06-10T00:16:39;9.07;;;6.95;;
79664;SDS011;69132;44.014;20.918;2023-06-10T00:19:06;8.70;;;7.35;;
79664;SDS011;69132;44.014;20.918;2023-06-10T00:21:33;10.32;;;8.23;;
79664;SDS011;69132;44.014;20.918;2023-06-10T00:24:03;16.73;;;7.72;;
79664;SDS011;69132;44.014;20.918;2023-06-10T00:26:30;10.85;;;8.02;;
79664;SDS011;69132;44.014;20.918;2023-06-10T00:28:57;10.02;;;8.18;;
79664;SDS011;69132;44.014;20.918;2023-06-10T00:31:24;9.82;;;8.27;;
79664;SDS011;69132;44.014;20.918;2023-06-10T00:33:53;12.48;;;8.32;;
79664;SDS011;69132;44.014;20.918;2023-06-10T00:36:19;10.10;;;8.55;;
79664;SDS011;69132;44.014;20.918;2023-06-10T00:38:45;9.88;;;7.32;;
79664;SDS011;69132;44.014;20.918;2023-06-10T00:41:12;8.95;;;7.72;;
79664;SDS011;69132;44.014;20.918;2023-06-10T00:43:38;9.23;;;7.63;;
79664;SDS011;69132;44.014;20.918;2023-06-10T00:46:04;8.43;;;7.55;;
79664;SDS011;69132;44.014;20.918;2023-06-10T00:48:30;9.98;;;7.47;;
79664;SDS011;69132;44.014;20.918;2023-06-10T00:50:56;9.20;;;8.27;;
79664;SDS011;69132;44.014;20.918;2023-06-10T00:53:23;11.00;;;8.68;;
79664;SDS011;69132;44.014;20.918;2023-06-10T00:55:50;8.15;;;7.30;;
79664;SDS011;69132;44.014;20.918;2023-06-10T00:58:16;11.48;;;8.13;;
79664;SDS011;69132;44.014;20.918;2023-06-10T01:00:42;10.00;;;7.45;;
79664;SDS011;69132;44.014;20.918;2023-06-10T01:03:10;11.83;;;8.43;;
79664;SDS011;69132;44.014;20.918;2023-06-10T01:05:37;8.35;;;7.00;;
79664;SDS011;69132;44.014;20.918;2023-06-10T01:08:09;11.13;;;8.40;;
79664;SDS011;69132;44.014;20.918;2023-06-10T01:10:38;8.52;;;7.22;;
79664;SDS011;69132;44.014;20.918;2023-06-10T01:13:07;8.93;;;6.85;;
79664;SDS011;69132;44.014;20.918;2023-06-10T01:15:36;9.45;;;6.55;;
79664;SDS011;69132;44.014;20.918;2023-06-10T01:18:06;8.40;;;6.97;;
79664;SDS011;69132;44.014;20.918;2023-06-10T01:20:35;10.63;;;7.72;;
79664;SDS011;69132;44.014;20.918;2023-06-10T01:23:05;9.35;;;7.20;;
79664;SDS011;69132;44.014;20.918;2023-06-10T01:25:34;8.55;;;7.38;;
79664;SDS011;69132;44.014;20.918;2023-06-10T01:30:27;10.10;;;7.72;;
79664;SDS011;69132;44.014;20.918;2023-06-10T01:35:22;8.18;;;6.80;;
79664;SDS011;69132;44.014;20.918;2023-06-10T01:37:52;8.73;;;6.65;;
79664;SDS011;69132;44.014;20.918;2023-06-10T01:40:18;6.97;;;6.30;;
79664;SDS011;69132;44.014;20.918;2023-06-10T01:42:45;7.78;;;6.25;;
79664;SDS011;69132;44.014;20.918;2023-06-10T01:45:12;7.82;;;7.00;;
79664;SDS011;69132;44.014;20.918;2023-06-10T01:47:38;8.35;;;7.50;;
79664;SDS011;69132;44.014;20.918;2023-06-10T01:50:04;7.13;;;6.43;;
79664;SDS011;69132;44.014;20.918;2023-06-10T01:52:30;10.23;;;8.77;;
79664;SDS011;69132;44.014;20.918;2023-06-10T01:54:56;10.32;;;9.05;;
79664;SDS011;69132;44.014;20.918;2023-06-10T01:57:24;9.80;;;8.52;;
79664;SDS011;69132;44.014;20.918;2023-06-10T01:59:50;8.15;;;6.95;;
79664;SDS011;69132;44.014;20.918;2023-06-10T02:02:16;11.98;;;8.45;;
79664;SDS011;69132;44.014;20.918;2023-06-10T02:04:42;8.45;;;7.55;;
79664;SDS011;69132;44.014;20.918;2023-06-10T02:07:08;9.35;;;7.80;;
79664;SDS011;69132;44.014;20.918;2023-06-10T02:09:34;9.02;;;7.22;;
79664;SDS011;69132;44.014;20.918;2023-06-10T02:12:02;13.07;;;7.80;;
79664;SDS011;69132;44.014;20.918;2023-06-10T02:14:29;7.75;;;7.00;;
79664;SDS011;69132;44.014;20.918;2023-06-10T02:16:55;9.98;;;7.60;;
79664;SDS011;69132;44.014;20.918;2023-06-10T02:19:22;11.55;;;9.55;;
79664;SDS011;69132;44.014;20.918;2023-06-10T02:21:50;14.93;;;11.03;;
79664;SDS011;69132;44.014;20.918;2023-06-10T02:24:19;17.00;;;11.73;;
79664;SDS011;69132;44.014;20.918;2023-06-10T02:26:45;14.52;;;11.90;;
79664;SDS011;69132;44.014;20.918;2023-06-10T02:29:13;18.50;;;13.20;;
79664;SDS011;69132;44.014;20.918;2023-06-10T02:31:39;19.60;;;13.65;;
79664;SDS011;69132;44.014;20.918;2023-06-10T02:34:06;18.38;;;14.93;;
79664;SDS011;69132;44.014;20.918;2023-06-10T02:36:33;17.83;;;14.00;;
79664;SDS011;69132;44.014;20.918;2023-06-10T02:39:01;21.55;;;16.17;;
79664;SDS011;69132;44.014;20.918;2023-06-10T02:41:27;21.23;;;16.92;;
79664;SDS011;69132;44.014;20.918;2023-06-10T02:43:54;21.13;;;16.17;;
79664;SDS011;69132;44.014;20.918;2023-06-10T02:46:21;22.95;;;16.27;;
79664;SDS011;69132;44.014;20.918;2023-06-10T02:48:47;21.52;;;16.90;;
79664;SDS011;69132;44.014;20.918;2023-06-10T02:51:14;20.25;;;17.17;;
79664;SDS011;69132;44.014;20.918;2023-06-10T02:53:40;23.70;;;17.27;;
79664;SDS011;69132;44.014;20.918;2023-06-10T02:56:09;19.30;;;15.75;;
79664;SDS011;69132;44.014;20.918;2023-06-10T02:58:36;17.77;;;14.25;;
79664;SDS011;69132;44.014;20.918;2023-06-10T03:01:02;20.73;;;16.23;;
79664;SDS011;69132;44.014;20.918;2023-06-10T03:03:29;22.00;;;16.35;;
79664;SDS011;69132;44.014;20.918;2023-06-10T03:05:58;17.60;;;14.90;;
79664;SDS011;69132;44.014;20.918;2023-06-10T03:08:24;20.42;;;14.77;;
79664;SDS011;69132;44.014;20.918;2023-06-10T03:10:52;18.80;;;12.85;;
79664;SDS011;69132;44.014;20.918;2023-06-10T03:13:18;13.32;;;11.63;;
79664;SDS011;69132;44.014;20.918;2023-06-10T03:15:44;15.27;;;13.00;;
79664;SDS011;69132;44.014;20.918;2023-06-10T03:18:11;18.65;;;14.30;;
79664;SDS011;69132;44.014;20.918;2023-06-10T03:20:37;28.08;;;16.92;;
79664;SDS011;69132;44.014;20.918;2023-06-10T03:23:05;19.87;;;15.70;;
79664;SDS011;69132;44.014;20.918;2023-06-10T03:25:31;19.08;;;15.10;;
79664;SDS011;69132;44.014;20.918;2023-06-10T03:27:58;18.92;;;14.48;;
79664;SDS011;69132;44.014;20.918;2023-06-10T03:30:25;18.70;;;13.65;;
79664;SDS011;69132;44.014;20.918;2023-06-10T03:32:51;19.33;;;14.82;;
79664;SDS011;69132;44.014;20.918;2023-06-10T03:35:17;22.80;;;16.08;;
79664;SDS011;69132;44.014;20.918;2023-06-10T03:37:43;21.55;;;16.83;;
79664;SDS011;69132;44.014;20.918;2023-06-10T03:40:09;19.30;;;15.13;;
79664;SDS011;69132;44.014;20.918;2023-06-10T03:42:37;15.88;;;14.23;;
79664;SDS011;69132;44.014;20.918;2023-06-10T03:45:03;21.00;;;15.15;;
79664;SDS011;69132;44.014;20.918;2023-06-10T03:47:35;18.90;;;12.52;;
79664;SDS011;69132;44.014;20.918;2023-06-10T03:50:04;14.90;;;11.48;;
79664;SDS011;69132;44.014;20.918;2023-06-10T03:52:30;13.48;;;10.70;;
79664;SDS011;69132;44.014;20.918;2023-06-10T03:54:56;11.27;;;9.82;;
79664;SDS011;69132;44.014;20.918;2023-06-10T03:57:22;13.05;;;9.88;;
79664;SDS011;69132;44.014;20.918;2023-06-10T03:59:48;16.77;;;11.70;;
79664;SDS011;69132;44.014;20.918;2023-06-10T04:02:15;17.00;;;12.30;;
79664;SDS011;69132;44.014;20.918;2023-06-10T04:04:43;15.55;;;12.18;;
79664;SDS011;69132;44.014;20.918;2023-06-10T04:07:10;19.23;;;12.98;;
79664;SDS011;69132;44.014;20.918;2023-06-10T04:09:37;12.88;;;10.50;;
79664;SDS011;69132;44.014;20.918;2023-06-10T04:12:04;12.88;;;11.38;;
79664;SDS011;69132;44.014;20.918;2023-06-10T04:14:31;14.27;;;12.82;;
79664;SDS011;69132;44.014;20.918;2023-06-10T04:16:58;15.60;;;13.98;;
79664;SDS011;69132;44.014;20.918;2023-06-10T04:19:25;17.33;;;15.38;;
79664;SDS011;69132;44.014;20.918;2023-06-10T04:21:51;18.00;;;14.10;;
79664;SDS011;69132;44.014;20.918;2023-06-10T04:24:17;16.73;;;13.93;;
79664;SDS011;69132;44.014;20.918;2023-06-10T04:26:43;15.95;;;12.65;;
79664;SDS011;69132;44.014;20.918;2023-06-10T04:29:11;11.73;;;10.53;;
79664;SDS011;69132;44.014;20.918;2023-06-10T04:31:37;14.88;;;11.73;;
79664;SDS011;69132;44.014;20.918;2023-06-10T04:34:03;14.38;;;11.27;;
79664;SDS011;69132;44.014;20.918;2023-06-10T04:36:29;12.63;;;9.70;;
79664;SDS011;69132;44.014;20.918;2023-06-10T04:38:57;16.05;;;10.77;;
79664;SDS011;69132;44.014;20.918;2023-06-10T04:41:25;13.02;;;11.35;;
79664;SDS011;69132;44.014;20.918;2023-06-10T04:43:52;10.32;;;9.10;;
79664;SDS011;69132;44.014;20.918;2023-06-10T04:46:20;12.85;;;8.70;;
79664;SDS011;69132;44.014;20.918;2023-06-10T04:48:50;12.95;;;9.02;;
79664;SDS011;69132;44.014;20.918;2023-06-10T04:51:19;11.57;;;8.60;;
79664;SDS011;69132;44.014;20.918;2023-06-10T04:53:50;12.38;;;9.02;;
79664;SDS011;69132;44.014;20.918;2023-06-10T04:56:16;11.82;;;9.13;;
79664;SDS011;69132;44.014;20.918;2023-06-10T04:58:42;9.95;;;8.95;;
79664;SDS011;69132;44.014;20.918;2023-06-10T05:01:09;14.15;;;8.30;;
79664;SDS011;69132;44.014;20.918;2023-06-10T05:03:35;15.50;;;7.72;;
79664;SDS011;69132;44.014;20.918;2023-06-10T05:06:01;10.68;;;7.50;;
79664;SDS011;69132;44.014;20.918;2023-06-10T05:08:27;10.65;;;7.75;;
79664;SDS011;69132;44.014;20.918;2023-06-10T05:10:54;11.35;;;7.32;;
79664;SDS011;69132;44.014;20.918;2023-06-10T05:13:20;11.13;;;7.53;;
79664;SDS011;69132;44.014;20.918;2023-06-10T05:15:47;8.95;;;7.57;;
79664;SDS011;69132;44.014;20.918;2023-06-10T05:18:14;8.68;;;7.30;;
79664;SDS011;69132;44.014;20.918;2023-06-10T05:20:40;12.13;;;9.85;;
79664;SDS011;69132;44.014;20.918;2023-06-10T05:23:07;8.13;;;6.50;;
79664;SDS011;69132;44.014;20.918;2023-06-10T05:25:33;9.15;;;6.43;;
79664;SDS011;69132;44.014;20.918;2023-06-10T05:28:01;8.02;;;5.60;;
79664;SDS011;69132;44.014;20.918;2023-06-10T05:30:28;6.70;;;5.37;;
79664;SDS011;69132;44.014;20.918;2023-06-10T05:32:55;7.43;;;5.70;;
79664;SDS011;69132;44.014;20.918;2023-06-10T05:35:21;6.07;;;5.53;;
79664;SDS011;69132;44.014;20.918;2023-06-10T05:37:48;8.35;;;6.70;;
79664;SDS011;69132;44.014;20.918;2023-06-10T05:40:14;6.72;;;5.93;;
79664;SDS011;69132;44.014;20.918;2023-06-10T05:42:40;8.25;;;6.00;;
79664;SDS011;69132;44.014;20.918;2023-06-10T05:45:08;7.00;;;6.07;;
79664;SDS011;69132;44.014;20.918;2023-06-10T05:47:34;7.78;;;6.47;;
79664;SDS011;69132;44.014;20.918;2023-06-10T05:50:00;8.85;;;6.78;;
79664;SDS011;69132;44.014;20.918;2023-06-10T05:52:27;13.18;;;7.15;;
79664;SDS011;69132;44.014;20.918;2023-06-10T05:54:53;7.00;;;5.75;;
79664;SDS011;69132;44.014;20.918;2023-06-10T05:57:20;6.85;;;5.63;;
79664;SDS011;69132;44.014;20.918;2023-06-10T05:59:47;8.52;;;6.20;;
79664;SDS011;69132;44.014;20.918;2023-06-10T06:02:13;8.82;;;6.25;;
79664;SDS011;69132;44.014;20.918;2023-06-10T06:04:39;9.00;;;6.60;;
79664;SDS011;69132;44.014;20.918;2023-06-10T06:07:06;6.63;;;5.93;;
79664;SDS011;69132;44.014;20.918;2023-06-10T06:09:32;8.27;;;5.72;;
79664;SDS011;69132;44.014;20.918;2023-06-10T06:11:58;8.52;;;5.97;;
79664;SDS011;69132;44.014;20.918;2023-06-10T06:14:24;10.05;;;6.13;;
79664;SDS011;69132;44.014;20.918;2023-06-10T06:16:50;7.13;;;6.15;;
79664;SDS011;69132;44.014;20.918;2023-06-10T06:19:19;7.90;;;5.90;;
79664;SDS011;69132;44.014;20.918;2023-06-10T06:21:45;8.82;;;6.03;;
79664;SDS011;69132;44.014;20.918;2023-06-10T06:24:11;9.95;;;6.53;;
79664;SDS011;69132;44.014;20.918;2023-06-10T06:26:40;8.80;;;6.13;;
79664;SDS011;69132;44.014;20.918;2023-06-10T06:29:06;10.68;;;7.75;;
79664;SDS011;69132;44.014;20.918;2023-06-10T06:31:33;9.35;;;8.35;;
79664;SDS011;69132;44.014;20.918;2023-06-10T06:33:59;11.75;;;8.15;;
79664;SDS011;69132;44.014;20.918;2023-06-10T06:36:25;14.98;;;9.43;;
79664;SDS011;69132;44.014;20.918;2023-06-10T06:38:51;14.23;;;8.48;;
79664;SDS011;69132;44.014;20.918;2023-06-10T06:41:18;13.00;;;8.75;;
79664;SDS011;69132;44.014;20.918;2023-06-10T06:43:46;14.48;;;9.80;;
79664;SDS011;69132;44.014;20.918;2023-06-10T06:46:13;9.70;;;8.70;;
79664;SDS011;69132;44.014;20.918;2023-06-10T06:48:40;11.98;;;8.52;;
79664;SDS011;69132;44.014;20.918;2023-06-10T06:51:06;9.70;;;8.70;;
79664;SDS011;69132;44.014;20.918;2023-06-10T06:53:32;11.10;;;9.90;;
79664;SDS011;69132;44.014;20.918;2023-06-10T06:55:59;12.88;;;9.82;;
79664;SDS011;69132;44.014;20.918;2023-06-10T06:58:25;15.57;;;11.07;;
79664;SDS011;69132;44.014;20.918;2023-06-10T07:00:51;10.10;;;7.90;;
79664;SDS011;69132;44.014;20.918;2023-06-10T07:03:17;13.50;;;7.93;;
79664;SDS011;69132;44.014;20.918;2023-06-10T07:05:46;12.77;;;8.63;;
79664;SDS011;69132;44.014;20.918;2023-06-10T07:08:12;10.43;;;7.97;;
79664;SDS011;69132;44.014;20.918;2023-06-10T07:10:38;9.75;;;8.65;;
79664;SDS011;69132;44.014;20.918;2023-06-10T07:13:04;9.68;;;8.30;;
79664;SDS011;69132;44.014;20.918;2023-06-10T07:15:33;10.25;;;8.18;;
79664;SDS011;69132;44.014;20.918;2023-06-10T07:17:59;14.27;;;9.57;;
79664;SDS011;69132;44.014;20.918;2023-06-10T07:20:26;12.23;;;9.18;;
79664;SDS011;69132;44.014;20.918;2023-06-10T07:22:52;11.43;;;9.32;;
79664;SDS011;69132;44.014;20.918;2023-06-10T07:25:18;12.05;;;9.85;;
79664;SDS011;69132;44.014;20.918;2023-06-10T07:27:44;11.98;;;10.77;;
79664;SDS011;69132;44.014;20.918;2023-06-10T07:30:12;12.23;;;10.82;;
79664;SDS011;69132;44.014;20.918;2023-06-10T07:32:38;10.85;;;9.82;;
79664;SDS011;69132;44.014;20.918;2023-06-10T07:35:06;12.73;;;11.32;;
79664;SDS011;69132;44.014;20.918;2023-06-10T07:37:32;12.98;;;11.60;;
79664;SDS011;69132;44.014;20.918;2023-06-10T07:39:58;12.30;;;10.93;;
79664;SDS011;69132;44.014;20.918;2023-06-10T07:42:24;13.30;;;11.57;;
79664;SDS011;69132;44.014;20.918;2023-06-10T07:44:57;12.05;;;10.82;;
79664;SDS011;69132;44.014;20.918;2023-06-10T07:47:26;11.38;;;10.18;;
79664;SDS011;69132;44.014;20.918;2023-06-10T07:49:52;12.80;;;10.65;;
79664;SDS011;69132;44.014;20.918;2023-06-10T07:52:18;12.13;;;11.02;;
79664;SDS011;69132;44.014;20.918;2023-06-10T07:54:44;12.63;;;10.55;;
79664;SDS011;69132;44.014;20.918;2023-06-10T07:57:11;11.90;;;10.60;;
79664;SDS011;69132;44.014;20.918;2023-06-10T07:59:38;12.13;;;10.25;;
79664;SDS011;69132;44.014;20.918;2023-06-10T08:02:04;12.98;;;10.98;;
79664;SDS011;69132;44.014;20.918;2023-06-10T08:04:31;13.20;;;11.90;;
79664;SDS011;69132;44.014;20.918;2023-06-10T08:06:57;14.45;;;11.13;;
79664;SDS011;69132;44.014;20.918;2023-06-10T08:09:23;11.43;;;10.23;;
79664;SDS011;69132;44.014;20.918;2023-06-10T08:11:49;11.82;;;10.65;;
79664;SDS011;69132;44.014;20.918;2023-06-10T08:14:15;11.95;;;10.75;;
79664;SDS011;69132;44.014;20.918;2023-06-10T08:16:43;13.55;;;10.95;;
79664;SDS011;69132;44.014;20.918;2023-06-10T08:19:09;12.68;;;11.40;;
79664;SDS011;69132;44.014;20.918;2023-06-10T08:21:35;12.15;;;11.00;;
79664;SDS011;69132;44.014;20.918;2023-06-10T08:24:02;15.07;;;11.52;;
79664;SDS011;69132;44.014;20.918;2023-06-10T08:26:28;13.75;;;11.77;;
79664;SDS011;69132;44.014;20.918;2023-06-10T08:28:54;14.07;;;12.27;;
79664;SDS011;69132;44.014;20.918;2023-06-10T08:31:20;13.10;;;11.80;;
79664;SDS011;69132;44.014;20.918;2023-06-10T08:33:46;15.18;;;12.68;;
79664;SDS011;69132;44.014;20.918;2023-06-10T08:36:13;17.05;;;13.40;;
79664;SDS011;69132;44.014;20.918;2023-06-10T08:38:39;11.38;;;10.07;;
79664;SDS011;69132;44.014;20.918;2023-06-10T08:41:06;11.38;;;10.00;;
79664;SDS011;69132;44.014;20.918;2023-06-10T08:45:59;11.38;;;9.68;;
79664;SDS011;69132;44.014;20.918;2023-06-10T08:48:27;11.90;;;10.52;;
79664;SDS011;69132;44.014;20.918;2023-06-10T08:50:55;11.48;;;9.40;;
79664;SDS011;69132;44.014;20.918;2023-06-10T08:53:22;10.75;;;8.60;;
79664;SDS011;69132;44.014;20.918;2023-06-10T08:55:50;8.35;;;7.22;;
79664;SDS011;69132;44.014;20.918;2023-06-10T08:58:19;9.23;;;7.38;;
79664;SDS011;69132;44.014;20.918;2023-06-10T09:00:46;9.23;;;7.47;;
79664;SDS011;69132;44.014;20.918;2023-06-10T09:03:12;8.13;;;7.22;;
79664;SDS011;69132;44.014;20.918;2023-06-10T09:05:38;8.73;;;7.88;;
79664;SDS011;69132;44.014;20.918;2023-06-10T09:08:08;8.50;;;7.60;;
79664;SDS011;69132;44.014;20.918;2023-06-10T09:10:35;9.55;;;7.63;;
79664;SDS011;69132;44.014;20.918;2023-06-10T09:13:02;12.00;;;8.23;;
79664;SDS011;69132;44.014;20.918;2023-06-10T09:15:40;10.52;;;8.40;;
79664;SDS011;69132;44.014;20.918;2023-06-10T09:18:11;11.77;;;8.27;;
79664;SDS011;69132;44.014;20.918;2023-06-10T09:20:38;11.35;;;8.65;;
79664;SDS011;69132;44.014;20.918;2023-06-10T09:23:11;10.05;;;8.52;;
79664;SDS011;69132;44.014;20.918;2023-06-10T09:25:55;10.38;;;8.02;;
79664;SDS011;69132;44.014;20.918;2023-06-10T09:28:22;9.73;;;8.15;;
79664;SDS011;69132;44.014;20.918;2023-06-10T09:30:49;11.00;;;8.60;;
79664;SDS011;69132;44.014;20.918;2023-06-10T09:33:15;13.57;;;10.43;;
79664;SDS011;69132;44.014;20.918;2023-06-10T09:35:49;14.07;;;9.60;;
79664;SDS011;69132;44.014;20.918;2023-06-10T09:38:21;13.73;;;11.00;;
79664;SDS011;69132;44.014;20.918;2023-06-10T09:40:51;19.45;;;14.60;;
79664;SDS011;69132;44.014;20.918;2023-06-10T09:43:19;15.35;;;11.43;;
79664;SDS011;69132;44.014;20.918;2023-06-10T09:45:49;14.13;;;12.63;;
79664;SDS011;69132;44.014;20.918;2023-06-10T09:48:18;17.48;;;12.23;;
79664;SDS011;69132;44.014;20.918;2023-06-10T09:50:44;15.00;;;13.40;;
79664;SDS011;69132;44.014;20.918;2023-06-10T09:55:53;31.23;;;24.20;;
79664;SDS011;69132;44.014;20.918;2023-06-10T09:58:33;29.53;;;26.37;;
79664;SDS011;69132;44.014;20.918;2023-06-10T10:01:04;14.02;;;12.57;;
79664;SDS011;69132;44.014;20.918;2023-06-10T10:03:30;13.40;;;11.60;;
79664;SDS011;69132;44.014;20.918;2023-06-10T10:06:00;16.70;;;12.38;;
79664;SDS011;69132;44.014;20.918;2023-06-10T10:08:33;13.75;;;12.10;;
79664;SDS011;69132;44.014;20.918;2023-06-10T10:10:59;14.98;;;12.40;;
79664;SDS011;69132;44.014;20.918;2023-06-10T10:13:25;15.98;;;12.82;;
79664;SDS011;69132;44.014;20.918;2023-06-10T10:15:52;17.27;;;13.60;;
79664;SDS011;69132;44.014;20.918;2023-06-10T10:18:19;14.85;;;13.02;;
79664;SDS011;69132;44.014;20.918;2023-06-10T10:20:49;13.23;;;11.82;;
79664;SDS011;69132;44.014;20.918;2023-06-10T10:23:29;14.13;;;12.10;;
79664;SDS011;69132;44.014;20.918;2023-06-10T10:26:00;14.57;;;12.98;;
79664;SDS011;69132;44.014;20.918;2023-06-10T10:28:34;12.82;;;11.55;;
79664;SDS011;69132;44.014;20.918;2023-06-10T10:31:09;11.63;;;10.52;;
79664;SDS011;69132;44.014;20.918;2023-06-10T10:33:48;14.10;;;12.60;;
79664;SDS011;69132;44.014;20.918;2023-06-10T10:36:14;15.18;;;13.38;;
79664;SDS011;69132;44.014;20.918;2023-06-10T10:38:41;15.43;;;13.93;;
79664;SDS011;69132;44.014;20.918;2023-06-10T10:41:09;16.77;;;12.32;;
79664;SDS011;69132;44.014;20.918;2023-06-10T10:43:35;13.40;;;10.07;;
79664;SDS011;69132;44.014;20.918;2023-06-10T10:46:08;10.15;;;9.13;;
79664;SDS011;69132;44.014;20.918;2023-06-10T10:48:37;12.23;;;9.10;;
79664;SDS011;69132;44.014;20.918;2023-06-10T10:51:04;9.18;;;7.95;;
79664;SDS011;69132;44.014;20.918;2023-06-10T10:53:42;9.13;;;8.20;;
79664;SDS011;69132;44.014;20.918;2023-06-10T10:56:13;8.77;;;7.88;;
79664;SDS011;69132;44.014;20.918;2023-06-10T10:58:39;9.68;;;8.55;;
79664;SDS011;69132;44.014;20.918;2023-06-10T11:01:12;10.43;;;8.50;;
79664;SDS011;69132;44.014;20.918;2023-06-10T11:03:45;10.23;;;9.05;;
79664;SDS011;69132;44.014;20.918;2023-06-10T11:06:28;15.70;;;13.88;;
79664;SDS011;69132;44.014;20.918;2023-06-10T11:08:54;15.80;;;10.93;;
79664;SDS011;69132;44.014;20.918;2023-06-10T11:11:24;14.02;;;10.95;;
79664;SDS011;69132;44.014;20.918;2023-06-10T11:16:27;14.48;;;11.45;;
79664;SDS011;69132;44.014;20.918;2023-06-10T11:18:59;13.20;;;11.63;;
79664;SDS011;69132;44.014;20.918;2023-06-10T11:21:26;19.70;;;13.13;;
79664;SDS011;69132;44.014;20.918;2023-06-10T11:23:52;15.27;;;12.75;;
79664;SDS011;69132;44.014;20.918;2023-06-10T11:26:19;16.63;;;12.80;;
79664;SDS011;69132;44.014;20.918;2023-06-10T11:31:24;19.67;;;14.77;;
79664;SDS011;69132;44.014;20.918;2023-06-10T11:34:00;21.00;;;14.65;;
79664;SDS011;69132;44.014;20.918;2023-06-10T11:36:28;18.15;;;15.40;;
79664;SDS011;69132;44.014;20.918;2023-06-10T11:38:56;15.77;;;13.90;;
79664;SDS011;69132;44.014;20.918;2023-06-10T11:41:26;15.30;;;13.70;;
79664;SDS011;69132;44.014;20.918;2023-06-10T11:43:54;17.00;;;15.20;;
79664;SDS011;69132;44.014;20.918;2023-06-10T11:46:21;19.75;;;16.05;;
79664;SDS011;69132;44.014;20.918;2023-06-10T11:48:53;15.55;;;13.15;;
79664;SDS011;69132;44.014;20.918;2023-06-10T11:51:19;15.40;;;13.82;;
79664;SDS011;69132;44.014;20.918;2023-06-10T11:53:49;16.08;;;14.38;;
79664;SDS011;69132;44.014;20.918;2023-06-10T11:56:25;18.48;;;15.23;;
79664;SDS011;69132;44.014;20.918;2023-06-10T11:59:09;16.25;;;14.55;;
79664;SDS011;69132;44.014;20.918;2023-06-10T12:01:36;18.38;;;16.48;;
79664;SDS011;69132;44.014;20.918;2023-06-10T12:04:03;16.70;;;14.95;;
79664;SDS011;69132;44.014;20.918;2023-06-10T12:06:46;17.27;;;15.43;;
79664;SDS011;69132;44.014;20.918;2023-06-10T12:09:20;20.63;;;15.43;;
79664;SDS011;69132;44.014;20.918;2023-06-10T12:11:48;17.90;;;14.68;;
79664;SDS011;69132;44.014;20.918;2023-06-10T12:16:51;16.08;;;14.52;;
79664;SDS011;69132;44.014;20.918;2023-06-10T12:19:17;15.82;;;14.15;;
79664;SDS011;69132;44.014;20.918;2023-06-10T12:21:43;15.77;;;14.20;;
79664;SDS011;69132;44.014;20.918;2023-06-10T12:24:10;16.00;;;14.23;;
79664;SDS011;69132;44.014;20.918;2023-06-10T12:26:46;17.33;;;15.52;;
79664;SDS011;69132;44.014;20.918;2023-06-10T12:29:19;17.10;;;15.23;;
79664;SDS011;69132;44.014;20.918;2023-06-10T12:32:03;16.45;;;14.82;;
79664;SDS011;69132;44.014;20.918;2023-06-10T12:34:31;21.27;;;16.17;;
79664;SDS011;69132;44.014;20.918;2023-06-10T12:37:00;15.93;;;14.43;;
79664;SDS011;69132;44.014;20.918;2023-06-10T12:39:29;17.88;;;15.98;;
79664;SDS011;69132;44.014;20.918;2023-06-10T12:41:55;19.83;;;17.73;;
79664;SDS011;69132;44.014;20.918;2023-06-10T12:44:34;18.13;;;16.33;;
79664;SDS011;69132;44.014;20.918;2023-06-10T12:47:06;16.55;;;14.77;;
79664;SDS011;69132;44.014;20.918;2023-06-10T12:49:33;15.85;;;13.55;;
79664;SDS011;69132;44.014;20.918;2023-06-10T12:52:00;15.45;;;14.05;;
79664;SDS011;69132;44.014;20.918;2023-06-10T12:54:26;15.23;;;13.73;;
79664;SDS011;69132;44.014;20.918;2023-06-10T12:56:52;14.77;;;13.38;;
79664;SDS011;69132;44.014;20.918;2023-06-10T12:59:18;14.02;;;12.63;;
79664;SDS011;69132;44.014;20.918;2023-06-10T13:01:49;14.85;;;13.45;;
79664;SDS011;69132;44.014;20.918;2023-06-10T13:04:16;13.55;;;12.30;;
79664;SDS011;69132;44.014;20.918;2023-06-10T13:06:43;13.45;;;12.05;;
79664;SDS011;69132;44.014;20.918;2023-06-10T13:09:09;13.73;;;12.43;;
79664;SDS011;69132;44.014;20.918;2023-06-10T13:11:36;14.15;;;12.73;;
79664;SDS011;69132;44.014;20.918;2023-06-10T13:14:05;12.43;;;11.27;;
79664;SDS011;69132;44.014;20.918;2023-06-10T13:16:31;10.93;;;9.82;;
79664;SDS011;69132;44.014;20.918;2023-06-10T13:18:57;11.00;;;9.85;;
79664;SDS011;69132;44.014;20.918;2023-06-10T13:21:24;11.55;;;10.48;;
79664;SDS011;69132;44.014;20.918;2023-06-10T13:23:52;11.25;;;10.15;;
79664;SDS011;69132;44.014;20.918;2023-06-10T13:26:18;11.10;;;10.00;;
79664;SDS011;69132;44.014;20.918;2023-06-10T13:28:45;10.23;;;9.35;;
79664;SDS011;69132;44.014;20.918;2023-06-10T13:31:11;11.65;;;10.45;;
79664;SDS011;69132;44.014;20.918;2023-06-10T13:33:37;11.10;;;10.10;;
79664;SDS011;69132;44.014;20.918;2023-06-10T13:36:05;12.20;;;9.90;;
79664;SDS011;69132;44.014;20.918;2023-06-10T13:38:31;10.77;;;9.77;;
79664;SDS011;69132;44.014;20.918;2023-06-10T13:40:57;11.35;;;9.75;;
79664;SDS011;69132;44.014;20.918;2023-06-10T13:43:24;9.98;;;8.98;;
79664;SDS011;69132;44.014;20.918;2023-06-10T13:45:56;10.32;;;9.38;;
79664;SDS011;69132;44.014;20.918;2023-06-10T13:48:23;11.00;;;9.07;;
79664;SDS011;69132;44.014;20.918;2023-06-10T13:50:49;9.68;;;8.77;;
79664;SDS011;69132;44.014;20.918;2023-06-10T13:53:17;9.30;;;8.45;;
79664;SDS011;69132;44.014;20.918;2023-06-10T13:55:45;31.77;;;23.73;;
79664;SDS011;69132;44.014;20.918;2023-06-10T13:58:11;10.00;;;9.00;;
79664;SDS011;69132;44.014;20.918;2023-06-10T14:00:39;11.40;;;10.30;;
79664;SDS011;69132;44.014;20.918;2023-06-10T14:03:06;35.75;;;29.98;;
79664;SDS011;69132;44.014;20.918;2023-06-10T14:05:32;29.08;;;24.67;;
79664;SDS011;69132;44.014;20.918;2023-06-10T14:08:01;47.63;;;36.42;;
79664;SDS011;69132;44.014;20.918;2023-06-10T14:10:27;22.85;;;19.33;;
79664;SDS011;69132;44.014;20.918;2023-06-10T14:12:53;9.80;;;8.18;;
79664;SDS011;69132;44.014;20.918;2023-06-10T14:15:20;10.20;;;8.38;;
79664;SDS011;69132;44.014;20.918;2023-06-10T14:17:46;9.65;;;8.65;;
79664;SDS011;69132;44.014;20.918;2023-06-10T14:20:14;12.18;;;8.50;;
79664;SDS011;69132;44.014;20.918;2023-06-10T14:22:40;9.97;;;8.20;;
79664;SDS011;69132;44.014;20.918;2023-06-10T14:25:06;9.70;;;8.70;;
79664;SDS011;69132;44.014;20.918;2023-06-10T14:27:32;12.85;;;11.55;;
79664;SDS011;69132;44.014;20.918;2023-06-10T14:29:58;8.27;;;7.47;;
79664;SDS011;69132;44.014;20.918;2023-06-10T14:32:25;7.97;;;7.20;;
79664;SDS011;69132;44.014;20.918;2023-06-10T14:34:51;8.57;;;7.57;;
79664;SDS011;69132;44.014;20.918;2023-06-10T14:37:17;8.30;;;7.50;;
79664;SDS011;69132;44.014;20.918;2023-06-10T14:39:43;8.48;;;7.70;;